sensor_id;sensor_type;location;lat;lon;timestamp;P1;durP1;ratioP1;P2;durP2;ratioP2
8060;SDS011;4073;42.626;25.386;2024-02-26T00:00:39;19.27;;;16.77;;
8060;SDS011;4073;42.626;25.386;2024-02-26T00:03:05;18.90;;;15.73;;
8060;SDS011;4073;42.626;25.386;2024-02-26T00:05:31;20.93;;;18.17;;
8060;SDS011;4073;42.626;25.386;2024-02-26T00:07:56;22.37;;;17.50;;
8060;SDS011;4073;42.626;25.386;2024-02-26T00:10:22;19.03;;;16.57;;
8060;SDS011;4073;42.626;25.386;2024-02-26T00:12:47;20.17;;;15.67;;
8060;SDS011;4073;42.626;25.386;2024-02-26T00:15:13;17.93;;;16.17;;
8060;SDS011;4073;42.626;25.386;2024-02-26T00:17:39;17.90;;;15.70;;
8060;SDS011;4073;42.626;25.386;2024-02-26T00:20:05;19.33;;;16.40;;
8060;SDS011;4073;42.626;25.386;2024-02-26T00:22:34;21.33;;;15.37;;
8060;SDS011;4073;42.626;25.386;2024-02-26T00:24:59;19.67;;;14.93;;
8060;SDS011;4073;42.626;25.386;2024-02-26T00:27:25;17.90;;;14.93;;
8060;SDS011;4073;42.626;25.386;2024-02-26T00:29:50;18.97;;;15.07;;
8060;SDS011;4073;42.626;25.386;2024-02-26T00:32:16;19.13;;;14.33;;
8060;SDS011;4073;42.626;25.386;2024-02-26T00:34:41;18.37;;;15.07;;
8060;SDS011;4073;42.626;25.386;2024-02-26T00:37:07;18.80;;;14.23;;
8060;SDS011;4073;42.626;25.386;2024-02-26T00:39:32;17.67;;;14.17;;
8060;SDS011;4073;42.626;25.386;2024-02-26T00:41:58;16.73;;;14.37;;
8060;SDS011;4073;42.626;25.386;2024-02-26T00:44:24;18.63;;;14.53;;
8060;SDS011;4073;42.626;25.386;2024-02-26T00:46:49;15.10;;;13.50;;
8060;SDS011;4073;42.626;25.386;2024-02-26T00:49:15;18.13;;;13.97;;
8060;SDS011;4073;42.626;25.386;2024-02-26T00:51:40;15.17;;;12.37;;
8060;SDS011;4073;42.626;25.386;2024-02-26T00:54:06;15.43;;;12.80;;
8060;SDS011;4073;42.626;25.386;2024-02-26T00:56:31;20.93;;;13.77;;
8060;SDS011;4073;42.626;25.386;2024-02-26T00:58:57;16.87;;;14.27;;
8060;SDS011;4073;42.626;25.386;2024-02-26T01:01:22;14.93;;;13.33;;
8060;SDS011;4073;42.626;25.386;2024-02-26T01:03:47;14.20;;;12.73;;
8060;SDS011;4073;42.626;25.386;2024-02-26T01:06:13;16.03;;;13.30;;
8060;SDS011;4073;42.626;25.386;2024-02-26T01:08:39;17.10;;;13.90;;
8060;SDS011;4073;42.626;25.386;2024-02-26T01:11:04;16.53;;;14.83;;
8060;SDS011;4073;42.626;25.386;2024-02-26T01:13:30;16.93;;;14.63;;
8060;SDS011;4073;42.626;25.386;2024-02-26T01:15:56;19.33;;;14.20;;
8060;SDS011;4073;42.626;25.386;2024-02-26T01:18:21;15.90;;;13.67;;
8060;SDS011;4073;42.626;25.386;2024-02-26T01:20:47;16.20;;;13.93;;
8060;SDS011;4073;42.626;25.386;2024-02-26T01:23:12;20.07;;;15.40;;
8060;SDS011;4073;42.626;25.386;2024-02-26T01:25:38;18.83;;;13.90;;
8060;SDS011;4073;42.626;25.386;2024-02-26T01:28:04;14.37;;;12.93;;
8060;SDS011;4073;42.626;25.386;2024-02-26T01:30:30;14.90;;;13.20;;
8060;SDS011;4073;42.626;25.386;2024-02-26T01:32:56;17.60;;;13.90;;
8060;SDS011;4073;42.626;25.386;2024-02-26T01:35:22;15.93;;;13.63;;
8060;SDS011;4073;42.626;25.386;2024-02-26T01:37:47;18.70;;;14.30;;
8060;SDS011;4073;42.626;25.386;2024-02-26T01:40:13;14.43;;;12.90;;
8060;SDS011;4073;42.626;25.386;2024-02-26T01:42:43;17.33;;;13.27;;
8060;SDS011;4073;42.626;25.386;2024-02-26T01:45:11;16.20;;;13.73;;
8060;SDS011;4073;42.626;25.386;2024-02-26T01:47:41;16.10;;;13.60;;
8060;SDS011;4073;42.626;25.386;2024-02-26T01:50:07;17.57;;;13.53;;
8060;SDS011;4073;42.626;25.386;2024-02-26T01:52:33;14.93;;;13.00;;
8060;SDS011;4073;42.626;25.386;2024-02-26T01:54:59;15.40;;;13.40;;
8060;SDS011;4073;42.626;25.386;2024-02-26T01:57:27;14.10;;;12.67;;
8060;SDS011;4073;42.626;25.386;2024-02-26T01:59:53;14.63;;;12.73;;
8060;SDS011;4073;42.626;25.386;2024-02-26T02:02:19;15.77;;;12.27;;
8060;SDS011;4073;42.626;25.386;2024-02-26T02:04:45;15.27;;;12.60;;
8060;SDS011;4073;42.626;25.386;2024-02-26T02:07:11;14.27;;;11.87;;
8060;SDS011;4073;42.626;25.386;2024-02-26T02:09:37;14.70;;;12.30;;
8060;SDS011;4073;42.626;25.386;2024-02-26T02:12:03;14.13;;;12.63;;
8060;SDS011;4073;42.626;25.386;2024-02-26T02:14:30;15.50;;;12.53;;
8060;SDS011;4073;42.626;25.386;2024-02-26T02:16:56;14.10;;;12.17;;
8060;SDS011;4073;42.626;25.386;2024-02-26T02:19:21;15.50;;;12.90;;
8060;SDS011;4073;42.626;25.386;2024-02-26T02:21:47;16.87;;;12.47;;
8060;SDS011;4073;42.626;25.386;2024-02-26T02:24:12;15.37;;;12.70;;
8060;SDS011;4073;42.626;25.386;2024-02-26T02:26:38;21.97;;;14.57;;
8060;SDS011;4073;42.626;25.386;2024-02-26T02:29:04;20.00;;;14.97;;
8060;SDS011;4073;42.626;25.386;2024-02-26T02:31:30;18.73;;;14.37;;
8060;SDS011;4073;42.626;25.386;2024-02-26T02:33:56;22.40;;;15.30;;
8060;SDS011;4073;42.626;25.386;2024-02-26T02:36:22;20.17;;;14.27;;
8060;SDS011;4073;42.626;25.386;2024-02-26T02:38:48;18.20;;;13.47;;
8060;SDS011;4073;42.626;25.386;2024-02-26T02:41:17;17.77;;;13.87;;
8060;SDS011;4073;42.626;25.386;2024-02-26T02:43:43;20.83;;;14.67;;
8060;SDS011;4073;42.626;25.386;2024-02-26T02:46:09;15.53;;;13.57;;
8060;SDS011;4073;42.626;25.386;2024-02-26T02:48:36;18.70;;;13.70;;
8060;SDS011;4073;42.626;25.386;2024-02-26T02:51:02;18.63;;;13.63;;
8060;SDS011;4073;42.626;25.386;2024-02-26T02:53:28;15.07;;;12.90;;
8060;SDS011;4073;42.626;25.386;2024-02-26T02:55:54;16.17;;;13.67;;
8060;SDS011;4073;42.626;25.386;2024-02-26T02:58:19;14.97;;;13.20;;
8060;SDS011;4073;42.626;25.386;2024-02-26T03:00:45;16.83;;;14.30;;
8060;SDS011;4073;42.626;25.386;2024-02-26T03:03:10;16.17;;;13.90;;
8060;SDS011;4073;42.626;25.386;2024-02-26T03:05:36;17.00;;;14.27;;
8060;SDS011;4073;42.626;25.386;2024-02-26T03:08:01;19.10;;;14.20;;
8060;SDS011;4073;42.626;25.386;2024-02-26T03:10:27;20.17;;;15.03;;
8060;SDS011;4073;42.626;25.386;2024-02-26T03:12:53;19.03;;;14.00;;
8060;SDS011;4073;42.626;25.386;2024-02-26T03:15:18;17.30;;;14.03;;
8060;SDS011;4073;42.626;25.386;2024-02-26T03:17:44;15.73;;;12.77;;
8060;SDS011;4073;42.626;25.386;2024-02-26T03:20:10;16.27;;;13.37;;
8060;SDS011;4073;42.626;25.386;2024-02-26T03:22:35;16.87;;;14.73;;
8060;SDS011;4073;42.626;25.386;2024-02-26T03:25:03;17.30;;;13.53;;
8060;SDS011;4073;42.626;25.386;2024-02-26T03:27:29;15.67;;;13.97;;
8060;SDS011;4073;42.626;25.386;2024-02-26T03:29:54;14.80;;;13.20;;
8060;SDS011;4073;42.626;25.386;2024-02-26T03:32:20;14.57;;;13.07;;
8060;SDS011;4073;42.626;25.386;2024-02-26T03:34:45;24.87;;;14.20;;
8060;SDS011;4073;42.626;25.386;2024-02-26T03:37:11;21.33;;;16.60;;
8060;SDS011;4073;42.626;25.386;2024-02-26T03:39:37;17.93;;;13.50;;
8060;SDS011;4073;42.626;25.386;2024-02-26T03:42:02;20.77;;;13.97;;
8060;SDS011;4073;42.626;25.386;2024-02-26T03:44:28;16.10;;;12.67;;
8060;SDS011;4073;42.626;25.386;2024-02-26T03:46:54;13.70;;;12.13;;
8060;SDS011;4073;42.626;25.386;2024-02-26T03:49:20;18.83;;;15.30;;
8060;SDS011;4073;42.626;25.386;2024-02-26T03:51:46;14.30;;;12.80;;
8060;SDS011;4073;42.626;25.386;2024-02-26T03:54:12;17.27;;;14.30;;
8060;SDS011;4073;42.626;25.386;2024-02-26T03:56:37;16.10;;;13.43;;
8060;SDS011;4073;42.626;25.386;2024-02-26T03:59:03;15.73;;;13.80;;
8060;SDS011;4073;42.626;25.386;2024-02-26T04:01:28;15.67;;;13.77;;
8060;SDS011;4073;42.626;25.386;2024-02-26T04:03:54;15.20;;;13.50;;
8060;SDS011;4073;42.626;25.386;2024-02-26T04:06:19;15.47;;;13.73;;
8060;SDS011;4073;42.626;25.386;2024-02-26T04:08:46;16.77;;;13.40;;
8060;SDS011;4073;42.626;25.386;2024-02-26T04:11:12;17.00;;;14.47;;
8060;SDS011;4073;42.626;25.386;2024-02-26T04:13:38;17.77;;;14.37;;
8060;SDS011;4073;42.626;25.386;2024-02-26T04:16:04;16.37;;;14.17;;
8060;SDS011;4073;42.626;25.386;2024-02-26T04:18:31;16.17;;;13.50;;
8060;SDS011;4073;42.626;25.386;2024-02-26T04:20:57;14.13;;;12.67;;
8060;SDS011;4073;42.626;25.386;2024-02-26T04:23:23;22.93;;;17.83;;
8060;SDS011;4073;42.626;25.386;2024-02-26T04:25:49;21.30;;;16.43;;
8060;SDS011;4073;42.626;25.386;2024-02-26T04:28:14;17.93;;;14.13;;
8060;SDS011;4073;42.626;25.386;2024-02-26T04:30:40;15.40;;;12.70;;
8060;SDS011;4073;42.626;25.386;2024-02-26T04:33:06;16.63;;;13.27;;
8060;SDS011;4073;42.626;25.386;2024-02-26T04:35:32;14.57;;;12.57;;
8060;SDS011;4073;42.626;25.386;2024-02-26T04:37:57;16.27;;;13.43;;
8060;SDS011;4073;42.626;25.386;2024-02-26T04:40:23;13.03;;;11.40;;
8060;SDS011;4073;42.626;25.386;2024-02-26T04:42:49;14.70;;;12.30;;
8060;SDS011;4073;42.626;25.386;2024-02-26T04:45:15;14.23;;;12.73;;
8060;SDS011;4073;42.626;25.386;2024-02-26T04:47:40;16.63;;;13.47;;
8060;SDS011;4073;42.626;25.386;2024-02-26T04:50:06;15.33;;;13.20;;
8060;SDS011;4073;42.626;25.386;2024-02-26T04:52:32;17.33;;;13.43;;
8060;SDS011;4073;42.626;25.386;2024-02-26T04:54:57;15.97;;;13.27;;
8060;SDS011;4073;42.626;25.386;2024-02-26T04:57:25;19.33;;;15.47;;
8060;SDS011;4073;42.626;25.386;2024-02-26T04:59:51;19.77;;;16.47;;
8060;SDS011;4073;42.626;25.386;2024-02-26T05:02:16;18.97;;;15.23;;
8060;SDS011;4073;42.626;25.386;2024-02-26T05:04:42;20.63;;;15.53;;
8060;SDS011;4073;42.626;25.386;2024-02-26T05:07:08;18.80;;;14.97;;
8060;SDS011;4073;42.626;25.386;2024-02-26T05:09:34;21.07;;;15.00;;
8060;SDS011;4073;42.626;25.386;2024-02-26T05:11:59;19.63;;;15.37;;
8060;SDS011;4073;42.626;25.386;2024-02-26T05:14:25;19.23;;;15.20;;
8060;SDS011;4073;42.626;25.386;2024-02-26T05:16:50;17.03;;;13.97;;
8060;SDS011;4073;42.626;25.386;2024-02-26T05:19:16;23.77;;;16.53;;
8060;SDS011;4073;42.626;25.386;2024-02-26T05:21:41;22.43;;;17.03;;
8060;SDS011;4073;42.626;25.386;2024-02-26T05:24:09;23.33;;;18.30;;
8060;SDS011;4073;42.626;25.386;2024-02-26T05:26:35;25.00;;;18.57;;
8060;SDS011;4073;42.626;25.386;2024-02-26T05:29:00;20.87;;;17.37;;
8060;SDS011;4073;42.626;25.386;2024-02-26T05:31:26;24.00;;;19.57;;
8060;SDS011;4073;42.626;25.386;2024-02-26T05:33:52;22.80;;;19.03;;
8060;SDS011;4073;42.626;25.386;2024-02-26T05:36:18;28.47;;;22.87;;
8060;SDS011;4073;42.626;25.386;2024-02-26T05:38:44;27.73;;;23.03;;
8060;SDS011;4073;42.626;25.386;2024-02-26T05:41:11;54.13;;;40.87;;
8060;SDS011;4073;42.626;25.386;2024-02-26T05:43:37;32.23;;;25.87;;
8060;SDS011;4073;42.626;25.386;2024-02-26T05:46:02;26.87;;;22.57;;
8060;SDS011;4073;42.626;25.386;2024-02-26T05:48:28;38.57;;;31.43;;
8060;SDS011;4073;42.626;25.386;2024-02-26T05:50:54;27.90;;;21.90;;
8060;SDS011;4073;42.626;25.386;2024-02-26T05:53:19;38.17;;;30.57;;
8060;SDS011;4073;42.626;25.386;2024-02-26T05:55:45;21.57;;;18.20;;
8060;SDS011;4073;42.626;25.386;2024-02-26T05:58:10;21.33;;;16.83;;
8060;SDS011;4073;42.626;25.386;2024-02-26T06:00:35;21.47;;;17.37;;
8060;SDS011;4073;42.626;25.386;2024-02-26T06:03:01;19.00;;;16.80;;
8060;SDS011;4073;42.626;25.386;2024-02-26T06:05:27;23.57;;;18.03;;
8060;SDS011;4073;42.626;25.386;2024-02-26T06:07:52;28.60;;;21.77;;
8060;SDS011;4073;42.626;25.386;2024-02-26T06:10:18;23.67;;;19.63;;
8060;SDS011;4073;42.626;25.386;2024-02-26T06:12:46;25.17;;;20.77;;
8060;SDS011;4073;42.626;25.386;2024-02-26T06:15:12;21.60;;;19.37;;
8060;SDS011;4073;42.626;25.386;2024-02-26T06:17:37;22.33;;;19.53;;
8060;SDS011;4073;42.626;25.386;2024-02-26T06:20:03;21.20;;;17.00;;
8060;SDS011;4073;42.626;25.386;2024-02-26T06:22:31;23.50;;;18.80;;
8060;SDS011;4073;42.626;25.386;2024-02-26T06:24:57;23.90;;;18.50;;
8060;SDS011;4073;42.626;25.386;2024-02-26T06:27:22;27.33;;;18.00;;
8060;SDS011;4073;42.626;25.386;2024-02-26T06:29:49;23.83;;;18.10;;
8060;SDS011;4073;42.626;25.386;2024-02-26T06:32:14;20.03;;;16.00;;
8060;SDS011;4073;42.626;25.386;2024-02-26T06:34:40;18.23;;;14.97;;
8060;SDS011;4073;42.626;25.386;2024-02-26T06:37:07;23.27;;;16.73;;
8060;SDS011;4073;42.626;25.386;2024-02-26T06:39:33;23.03;;;17.00;;
8060;SDS011;4073;42.626;25.386;2024-02-26T06:41:59;21.77;;;17.17;;
8060;SDS011;4073;42.626;25.386;2024-02-26T06:44:28;21.27;;;15.27;;
8060;SDS011;4073;42.626;25.386;2024-02-26T06:46:59;19.53;;;15.60;;
8060;SDS011;4073;42.626;25.386;2024-02-26T06:49:25;19.70;;;13.67;;
8060;SDS011;4073;42.626;25.386;2024-02-26T06:51:51;18.17;;;14.90;;
8060;SDS011;4073;42.626;25.386;2024-02-26T06:54:16;17.93;;;13.47;;
8060;SDS011;4073;42.626;25.386;2024-02-26T06:56:42;16.40;;;13.20;;
8060;SDS011;4073;42.626;25.386;2024-02-26T06:59:07;13.67;;;11.50;;
8060;SDS011;4073;42.626;25.386;2024-02-26T07:01:33;16.97;;;13.10;;
8060;SDS011;4073;42.626;25.386;2024-02-26T07:03:58;17.40;;;13.83;;
8060;SDS011;4073;42.626;25.386;2024-02-26T07:06:24;16.43;;;14.17;;
8060;SDS011;4073;42.626;25.386;2024-02-26T07:08:50;18.57;;;14.00;;
8060;SDS011;4073;42.626;25.386;2024-02-26T07:11:15;13.50;;;12.10;;
8060;SDS011;4073;42.626;25.386;2024-02-26T07:13:41;18.20;;;14.20;;
8060;SDS011;4073;42.626;25.386;2024-02-26T07:16:08;15.43;;;13.53;;
8060;SDS011;4073;42.626;25.386;2024-02-26T07:18:35;17.70;;;14.50;;
8060;SDS011;4073;42.626;25.386;2024-02-26T07:21:03;19.83;;;14.03;;
8060;SDS011;4073;42.626;25.386;2024-02-26T07:23:29;14.73;;;12.10;;
8060;SDS011;4073;42.626;25.386;2024-02-26T07:25:54;13.00;;;10.50;;
8060;SDS011;4073;42.626;25.386;2024-02-26T07:28:20;14.07;;;10.43;;
8060;SDS011;4073;42.626;25.386;2024-02-26T07:30:46;13.57;;;11.43;;
8060;SDS011;4073;42.626;25.386;2024-02-26T07:33:11;14.00;;;11.70;;
8060;SDS011;4073;42.626;25.386;2024-02-26T07:35:37;16.07;;;11.43;;
8060;SDS011;4073;42.626;25.386;2024-02-26T07:38:04;17.40;;;12.30;;
8060;SDS011;4073;42.626;25.386;2024-02-26T07:40:30;21.90;;;13.87;;
8060;SDS011;4073;42.626;25.386;2024-02-26T07:42:55;14.60;;;11.97;;
8060;SDS011;4073;42.626;25.386;2024-02-26T07:45:21;16.20;;;13.37;;
8060;SDS011;4073;42.626;25.386;2024-02-26T07:47:47;18.00;;;14.00;;
8060;SDS011;4073;42.626;25.386;2024-02-26T07:50:13;14.83;;;11.60;;
8060;SDS011;4073;42.626;25.386;2024-02-26T07:52:39;14.13;;;12.17;;
8060;SDS011;4073;42.626;25.386;2024-02-26T07:55:05;14.07;;;12.57;;
8060;SDS011;4073;42.626;25.386;2024-02-26T07:57:32;15.30;;;12.90;;
8060;SDS011;4073;42.626;25.386;2024-02-26T07:59:58;19.40;;;15.80;;
8060;SDS011;4073;42.626;25.386;2024-02-26T08:02:24;16.93;;;14.47;;
8060;SDS011;4073;42.626;25.386;2024-02-26T08:04:50;17.67;;;15.43;;
8060;SDS011;4073;42.626;25.386;2024-02-26T08:07:16;16.43;;;14.73;;
8060;SDS011;4073;42.626;25.386;2024-02-26T08:09:41;21.87;;;15.07;;
8060;SDS011;4073;42.626;25.386;2024-02-26T08:12:07;16.80;;;13.63;;
8060;SDS011;4073;42.626;25.386;2024-02-26T08:14:32;18.20;;;14.90;;
8060;SDS011;4073;42.626;25.386;2024-02-26T08:16:58;21.70;;;15.97;;
8060;SDS011;4073;42.626;25.386;2024-02-26T08:19:24;19.40;;;15.87;;
8060;SDS011;4073;42.626;25.386;2024-02-26T08:21:50;18.30;;;15.00;;
8060;SDS011;4073;42.626;25.386;2024-02-26T08:24:15;18.50;;;15.77;;
8060;SDS011;4073;42.626;25.386;2024-02-26T08:26:42;19.70;;;15.93;;
8060;SDS011;4073;42.626;25.386;2024-02-26T08:29:07;16.90;;;15.03;;
8060;SDS011;4073;42.626;25.386;2024-02-26T08:31:33;21.37;;;17.57;;
8060;SDS011;4073;42.626;25.386;2024-02-26T08:34:00;20.87;;;17.27;;
8060;SDS011;4073;42.626;25.386;2024-02-26T08:36:26;19.57;;;15.37;;
8060;SDS011;4073;42.626;25.386;2024-02-26T08:38:51;19.47;;;17.07;;
8060;SDS011;4073;42.626;25.386;2024-02-26T08:41:17;20.40;;;17.60;;
8060;SDS011;4073;42.626;25.386;2024-02-26T08:43:42;17.63;;;15.27;;
8060;SDS011;4073;42.626;25.386;2024-02-26T08:46:08;16.77;;;15.07;;
8060;SDS011;4073;42.626;25.386;2024-02-26T08:48:35;17.50;;;15.47;;
8060;SDS011;4073;42.626;25.386;2024-02-26T08:51:04;18.63;;;13.47;;
8060;SDS011;4073;42.626;25.386;2024-02-26T08:53:30;11.87;;;10.43;;
8060;SDS011;4073;42.626;25.386;2024-02-26T08:55:56;14.67;;;12.43;;
8060;SDS011;4073;42.626;25.386;2024-02-26T08:58:21;11.33;;;10.17;;
8060;SDS011;4073;42.626;25.386;2024-02-26T09:00:47;18.47;;;11.60;;
8060;SDS011;4073;42.626;25.386;2024-02-26T09:03:12;15.03;;;11.90;;
8060;SDS011;4073;42.626;25.386;2024-02-26T09:05:38;18.03;;;13.93;;
8060;SDS011;4073;42.626;25.386;2024-02-26T09:08:03;12.90;;;11.60;;
8060;SDS011;4073;42.626;25.386;2024-02-26T09:10:29;20.93;;;17.00;;
8060;SDS011;4073;42.626;25.386;2024-02-26T09:12:55;14.50;;;12.70;;
8060;SDS011;4073;42.626;25.386;2024-02-26T09:15:20;13.80;;;12.03;;
8060;SDS011;4073;42.626;25.386;2024-02-26T09:17:46;17.77;;;12.83;;
8060;SDS011;4073;42.626;25.386;2024-02-26T09:20:15;13.67;;;11.50;;
8060;SDS011;4073;42.626;25.386;2024-02-26T09:22:45;14.10;;;10.37;;
8060;SDS011;4073;42.626;25.386;2024-02-26T09:25:13;13.83;;;11.13;;
8060;SDS011;4073;42.626;25.386;2024-02-26T09:27:41;13.00;;;11.80;;
8060;SDS011;4073;42.626;25.386;2024-02-26T09:30:08;13.47;;;12.00;;
8060;SDS011;4073;42.626;25.386;2024-02-26T09:32:38;14.97;;;12.93;;
8060;SDS011;4073;42.626;25.386;2024-02-26T09:35:05;15.33;;;12.67;;
8060;SDS011;4073;42.626;25.386;2024-02-26T09:37:31;17.47;;;15.33;;
8060;SDS011;4073;42.626;25.386;2024-02-26T09:39:57;13.33;;;11.23;;
8060;SDS011;4073;42.626;25.386;2024-02-26T09:42:24;12.07;;;9.80;;
8060;SDS011;4073;42.626;25.386;2024-02-26T09:44:51;13.53;;;10.30;;
8060;SDS011;4073;42.626;25.386;2024-02-26T09:47:20;12.60;;;9.50;;
8060;SDS011;4073;42.626;25.386;2024-02-26T09:49:48;11.57;;;10.37;;
8060;SDS011;4073;42.626;25.386;2024-02-26T09:52:16;11.33;;;10.20;;
8060;SDS011;4073;42.626;25.386;2024-02-26T09:54:46;11.73;;;10.30;;
8060;SDS011;4073;42.626;25.386;2024-02-26T09:57:12;18.00;;;14.47;;
8060;SDS011;4073;42.626;25.386;2024-02-26T09:59:42;16.83;;;13.83;;
8060;SDS011;4073;42.626;25.386;2024-02-26T10:02:12;15.70;;;12.00;;
8060;SDS011;4073;42.626;25.386;2024-02-26T10:04:41;12.53;;;10.60;;
8060;SDS011;4073;42.626;25.386;2024-02-26T10:07:11;16.67;;;11.93;;
8060;SDS011;4073;42.626;25.386;2024-02-26T10:09:39;16.67;;;11.53;;
8060;SDS011;4073;42.626;25.386;2024-02-26T10:12:07;13.90;;;12.33;;
8060;SDS011;4073;42.626;25.386;2024-02-26T10:14:36;11.77;;;10.57;;
8060;SDS011;4073;42.626;25.386;2024-02-26T10:17:02;13.77;;;11.30;;
8060;SDS011;4073;42.626;25.386;2024-02-26T10:19:30;12.20;;;10.03;;
8060;SDS011;4073;42.626;25.386;2024-02-26T10:21:57;15.40;;;12.40;;
8060;SDS011;4073;42.626;25.386;2024-02-26T10:24:27;11.13;;;9.97;;
8060;SDS011;4073;42.626;25.386;2024-02-26T10:26:55;11.40;;;10.30;;
8060;SDS011;4073;42.626;25.386;2024-02-26T10:29:24;10.27;;;8.30;;
8060;SDS011;4073;42.626;25.386;2024-02-26T10:31:50;9.97;;;8.97;;
8060;SDS011;4073;42.626;25.386;2024-02-26T10:34:16;10.13;;;9.03;;
8060;SDS011;4073;42.626;25.386;2024-02-26T10:36:42;6.77;;;5.67;;
8060;SDS011;4073;42.626;25.386;2024-02-26T10:39:12;11.77;;;6.93;;
8060;SDS011;4073;42.626;25.386;2024-02-26T10:41:41;11.30;;;7.03;;
8060;SDS011;4073;42.626;25.386;2024-02-26T10:44:09;7.70;;;6.90;;
8060;SDS011;4073;42.626;25.386;2024-02-26T10:46:40;8.43;;;6.43;;
8060;SDS011;4073;42.626;25.386;2024-02-26T10:49:08;6.57;;;5.17;;
8060;SDS011;4073;42.626;25.386;2024-02-26T10:51:38;7.67;;;5.73;;
8060;SDS011;4073;42.626;25.386;2024-02-26T10:54:07;5.37;;;4.73;;
8060;SDS011;4073;42.626;25.386;2024-02-26T10:56:35;6.33;;;4.33;;
8060;SDS011;4073;42.626;25.386;2024-02-26T10:59:04;4.47;;;4.07;;
8060;SDS011;4073;42.626;25.386;2024-02-26T11:01:32;5.33;;;3.80;;
8060;SDS011;4073;42.626;25.386;2024-02-26T11:04:03;6.43;;;3.73;;
8060;SDS011;4073;42.626;25.386;2024-02-26T11:06:29;6.20;;;4.27;;
8060;SDS011;4073;42.626;25.386;2024-02-26T11:08:59;4.60;;;4.17;;
8060;SDS011;4073;42.626;25.386;2024-02-26T11:11:25;9.47;;;5.80;;
8060;SDS011;4073;42.626;25.386;2024-02-26T11:13:52;5.80;;;5.20;;
8060;SDS011;4073;42.626;25.386;2024-02-26T11:16:22;7.73;;;4.00;;
8060;SDS011;4073;42.626;25.386;2024-02-26T11:18:49;4.73;;;3.90;;
8060;SDS011;4073;42.626;25.386;2024-02-26T11:21:15;7.03;;;3.97;;
8060;SDS011;4073;42.626;25.386;2024-02-26T11:23:42;4.80;;;3.87;;
8060;SDS011;4073;42.626;25.386;2024-02-26T11:26:08;4.63;;;3.77;;
8060;SDS011;4073;42.626;25.386;2024-02-26T11:28:36;4.97;;;4.10;;
8060;SDS011;4073;42.626;25.386;2024-02-26T11:31:03;6.67;;;4.90;;
8060;SDS011;4073;42.626;25.386;2024-02-26T11:33:31;5.70;;;3.47;;
8060;SDS011;4073;42.626;25.386;2024-02-26T11:35:57;6.93;;;4.47;;
8060;SDS011;4073;42.626;25.386;2024-02-26T11:38:24;4.80;;;3.73;;
8060;SDS011;4073;42.626;25.386;2024-02-26T11:40:52;12.37;;;7.07;;
8060;SDS011;4073;42.626;25.386;2024-02-26T11:43:18;6.23;;;4.63;;
8060;SDS011;4073;42.626;25.386;2024-02-26T11:46:24;6.27;;;4.57;;
8060;SDS011;4073;42.626;25.386;2024-02-26T11:48:50;5.90;;;4.07;;
8060;SDS011;4073;42.626;25.386;2024-02-26T11:51:16;6.67;;;4.90;;
8060;SDS011;4073;42.626;25.386;2024-02-26T11:53:45;6.93;;;5.47;;
8060;SDS011;4073;42.626;25.386;2024-02-26T11:58:42;13.17;;;6.17;;
8060;SDS011;4073;42.626;25.386;2024-02-26T12:06:43;10.57;;;5.93;;
8060;SDS011;4073;42.626;25.386;2024-02-26T12:09:11;9.30;;;7.13;;
8060;SDS011;4073;42.626;25.386;2024-02-26T12:11:38;10.97;;;7.30;;
8060;SDS011;4073;42.626;25.386;2024-02-26T12:14:05;14.77;;;9.40;;
8060;SDS011;4073;42.626;25.386;2024-02-26T12:16:38;6.37;;;5.67;;
8060;SDS011;4073;42.626;25.386;2024-02-26T12:19:05;6.77;;;5.50;;
8060;SDS011;4073;42.626;25.386;2024-02-26T12:21:35;5.83;;;4.90;;
8060;SDS011;4073;42.626;25.386;2024-02-26T12:24:12;5.90;;;5.27;;
8060;SDS011;4073;42.626;25.386;2024-02-26T12:26:39;10.57;;;6.40;;
8060;SDS011;4073;42.626;25.386;2024-02-26T12:29:05;8.03;;;6.27;;
8060;SDS011;4073;42.626;25.386;2024-02-26T12:31:31;6.77;;;5.20;;
8060;SDS011;4073;42.626;25.386;2024-02-26T12:33:58;5.43;;;4.67;;
8060;SDS011;4073;42.626;25.386;2024-02-26T12:36:26;8.50;;;5.93;;
8060;SDS011;4073;42.626;25.386;2024-02-26T12:38:52;5.93;;;4.77;;
8060;SDS011;4073;42.626;25.386;2024-02-26T12:41:18;9.83;;;5.33;;
8060;SDS011;4073;42.626;25.386;2024-02-26T12:43:44;8.63;;;5.40;;
8060;SDS011;4073;42.626;25.386;2024-02-26T12:46:11;7.60;;;5.23;;
8060;SDS011;4073;42.626;25.386;2024-02-26T12:48:38;4.83;;;4.33;;
8060;SDS011;4073;42.626;25.386;2024-02-26T12:51:04;5.70;;;4.57;;
8060;SDS011;4073;42.626;25.386;2024-02-26T12:53:31;6.73;;;5.27;;
8060;SDS011;4073;42.626;25.386;2024-02-26T12:56:15;7.17;;;5.20;;
8060;SDS011;4073;42.626;25.386;2024-02-26T12:58:41;10.07;;;6.07;;
8060;SDS011;4073;42.626;25.386;2024-02-26T13:01:08;7.63;;;5.17;;
8060;SDS011;4073;42.626;25.386;2024-02-26T13:03:39;8.17;;;5.70;;
8060;SDS011;4073;42.626;25.386;2024-02-26T13:06:06;10.53;;;6.30;;
8060;SDS011;4073;42.626;25.386;2024-02-26T13:08:32;10.03;;;6.90;;
8060;SDS011;4073;42.626;25.386;2024-02-26T13:10:58;11.47;;;7.23;;
8060;SDS011;4073;42.626;25.386;2024-02-26T13:13:25;7.53;;;6.83;;
8060;SDS011;4073;42.626;25.386;2024-02-26T13:16:00;8.23;;;7.40;;
8060;SDS011;4073;42.626;25.386;2024-02-26T13:18:31;9.87;;;8.77;;
8060;SDS011;4073;42.626;25.386;2024-02-26T13:21:10;17.40;;;9.90;;
8060;SDS011;4073;42.626;25.386;2024-02-26T13:23:40;9.67;;;7.80;;
8060;SDS011;4073;42.626;25.386;2024-02-26T13:26:07;9.23;;;7.10;;
8060;SDS011;4073;42.626;25.386;2024-02-26T13:28:33;10.30;;;8.03;;
8060;SDS011;4073;42.626;25.386;2024-02-26T13:30:59;8.37;;;5.37;;
8060;SDS011;4073;42.626;25.386;2024-02-26T13:33:26;7.33;;;6.57;;
8060;SDS011;4073;42.626;25.386;2024-02-26T13:35:57;7.77;;;5.77;;
8060;SDS011;4073;42.626;25.386;2024-02-26T13:38:23;8.17;;;5.90;;
8060;SDS011;4073;42.626;25.386;2024-02-26T13:40:51;7.63;;;6.30;;
8060;SDS011;4073;42.626;25.386;2024-02-26T13:43:18;9.07;;;5.23;;
8060;SDS011;4073;42.626;25.386;2024-02-26T13:45:44;12.33;;;6.40;;
8060;SDS011;4073;42.626;25.386;2024-02-26T13:48:10;8.53;;;6.00;;
8060;SDS011;4073;42.626;25.386;2024-02-26T13:50:36;7.17;;;5.63;;
8060;SDS011;4073;42.626;25.386;2024-02-26T13:53:06;7.83;;;4.87;;
8060;SDS011;4073;42.626;25.386;2024-02-26T13:55:31;11.43;;;5.80;;
8060;SDS011;4073;42.626;25.386;2024-02-26T13:57:57;8.00;;;5.80;;
8060;SDS011;4073;42.626;25.386;2024-02-26T14:00:26;8.00;;;5.40;;
8060;SDS011;4073;42.626;25.386;2024-02-26T14:02:52;9.47;;;5.63;;
8060;SDS011;4073;42.626;25.386;2024-02-26T14:05:18;7.23;;;4.73;;
8060;SDS011;4073;42.626;25.386;2024-02-26T14:07:44;6.17;;;5.03;;
8060;SDS011;4073;42.626;25.386;2024-02-26T14:10:11;7.80;;;5.97;;
8060;SDS011;4073;42.626;25.386;2024-02-26T14:12:37;10.00;;;5.70;;
8060;SDS011;4073;42.626;25.386;2024-02-26T14:15:04;9.03;;;6.20;;
8060;SDS011;4073;42.626;25.386;2024-02-26T14:17:33;9.20;;;6.60;;
8060;SDS011;4073;42.626;25.386;2024-02-26T14:19:58;8.53;;;4.77;;
8060;SDS011;4073;42.626;25.386;2024-02-26T14:22:24;8.97;;;4.90;;
8060;SDS011;4073;42.626;25.386;2024-02-26T14:24:51;10.73;;;5.97;;
8060;SDS011;4073;42.626;25.386;2024-02-26T14:27:17;6.70;;;5.13;;
8060;SDS011;4073;42.626;25.386;2024-02-26T14:29:45;9.83;;;6.47;;
8060;SDS011;4073;42.626;25.386;2024-02-26T14:32:11;7.97;;;6.50;;
8060;SDS011;4073;42.626;25.386;2024-02-26T14:34:36;9.87;;;5.97;;
8060;SDS011;4073;42.626;25.386;2024-02-26T14:37:02;8.17;;;5.57;;
8060;SDS011;4073;42.626;25.386;2024-02-26T14:39:29;10.97;;;6.60;;
8060;SDS011;4073;42.626;25.386;2024-02-26T14:41:54;9.43;;;7.13;;
8060;SDS011;4073;42.626;25.386;2024-02-26T14:44:20;16.37;;;9.63;;